createdAt,value
2023-05-10T00:00:55.771Z,100812.00
2023-05-10T00:03:22.370Z,100808.47
2023-05-10T00:05:49.027Z,100805.84
2023-05-10T00:08:15.623Z,100806.72
2023-05-10T00:10:42.164Z,100802.31
2023-05-10T00:13:11.648Z,100799.69
2023-05-10T00:15:38.187Z,100791.75
2023-05-10T00:18:04.794Z,100796.16
2023-05-10T00:20:31.396Z,100799.69
2023-05-10T00:22:57.900Z,100801.44
2023-05-10T00:25:24.548Z,100803.19
2023-05-10T00:27:51.107Z,100797.91
2023-05-10T00:30:19.859Z,100792.66
2023-05-10T00:32:46.376Z,100794.44
2023-05-10T00:35:12.790Z,100804.13
2023-05-10T00:37:39.208Z,100797.94
2023-05-10T00:40:07.326Z,100806.78
2023-05-10T00:42:33.809Z,100804.13
2023-05-10T00:45:03.311Z,100804.16
2023-05-10T00:47:33.223Z,100802.38
2023-05-10T00:50:01.580Z,100804.13
2023-05-10T00:52:29.986Z,100807.69
2023-05-10T00:54:57.731Z,100810.31
2023-05-10T00:57:25.268Z,100803.28
2023-05-10T00:59:52.220Z,100805.91
2023-05-10T01:02:18.829Z,100809.44
2023-05-10T01:04:45.205Z,100812.09
2023-05-10T01:07:12.017Z,100807.69
2023-05-10T01:09:38.597Z,100804.16
2023-05-10T01:12:10.084Z,100811.22
2023-05-10T01:14:37.389Z,100814.72
2023-05-10T01:17:06.014Z,100815.59
2023-05-10T01:19:35.922Z,100804.16
2023-05-10T01:22:23.673Z,100807.69
2023-05-10T01:25:27.949Z,100815.59
2023-05-10T01:28:16.330Z,100810.34
2023-05-10T01:31:09.527Z,100817.41
2023-05-10T01:33:55.816Z,100805.06
2023-05-10T01:36:40.325Z,100814.78
2023-05-10T01:39:15.799Z,100802.44
2023-05-10T01:42:01.372Z,100805.97
2023-05-10T01:44:41.155Z,100808.63
2023-05-10T01:47:18.308Z,100813.91
2023-05-10T01:49:50.428Z,100814.81
2023-05-10T01:52:20.333Z,100812.13
2023-05-10T01:54:54.852Z,100811.28
2023-05-10T01:57:23.105Z,100815.66
2023-05-10T01:59:51.577Z,100816.56
2023-05-10T02:02:21.152Z,100822.72
2023-05-10T02:04:50.468Z,100821.84
2023-05-10T02:07:17.565Z,100822.69
2023-05-10T02:09:48.863Z,100822.69
2023-05-10T02:12:16.510Z,100821.78
2023-05-10T02:14:44.348Z,100828.88
2023-05-10T02:17:12.425Z,100831.50
2023-05-10T02:19:42.577Z,100827.06
2023-05-10T02:22:09.899Z,100826.19
2023-05-10T02:24:38.328Z,100837.66
2023-05-10T02:27:05.929Z,100833.22
2023-05-10T02:29:34.431Z,100836.78
2023-05-10T02:32:02.501Z,100835.91
2023-05-10T02:34:29.879Z,100837.66
2023-05-10T02:36:57.296Z,100845.59
2023-05-10T02:39:28.462Z,100843.81
2023-05-10T02:41:56.465Z,100838.53
2023-05-10T02:44:24.115Z,100838.53
2023-05-10T02:46:50.878Z,100842.06
2023-05-10T02:49:17.472Z,100851.81
2023-05-10T02:51:53.855Z,100847.41
2023-05-10T02:54:25.242Z,100851.84
2023-05-10T02:56:57.220Z,100851.88
2023-05-10T02:59:23.539Z,100846.59
2023-05-10T03:01:50.119Z,100855.44
2023-05-10T03:04:16.802Z,100853.69
2023-05-10T03:06:43.393Z,100849.28
2023-05-10T03:09:14.311Z,100850.19
2023-05-10T03:11:48.273Z,100851.03
2023-05-10T03:14:23.398Z,100849.28
2023-05-10T03:17:19.353Z,100844.00
2023-05-10T03:20:05.347Z,100840.47
2023-05-10T03:22:37.890Z,100847.53
2023-05-10T03:25:07.831Z,100853.72
2023-05-10T03:27:38.815Z,100853.69
2023-05-10T03:30:12.693Z,100853.69
2023-05-10T03:32:39.778Z,100857.28
2023-05-10T03:35:16.740Z,100858.13
2023-05-10T03:37:43.241Z,100863.41
2023-05-10T03:40:13.020Z,100860.81
2023-05-10T03:42:39.529Z,100862.56
2023-05-10T03:45:06.834Z,100865.22
2023-05-10T03:47:33.413Z,100866.13
2023-05-10T03:50:03.398Z,100856.47
2023-05-10T03:52:29.962Z,100867.91
2023-05-10T03:54:56.399Z,100872.31
2023-05-10T03:57:25.685Z,100874.06
2023-05-10T03:59:52.212Z,100870.56
2023-05-10T04:02:18.721Z,100880.25
2023-05-10T04:04:45.180Z,100879.38
2023-05-10T04:07:11.622Z,100880.28
2023-05-10T04:09:38.085Z,100884.66
2023-05-10T04:12:04.657Z,100869.72
2023-05-10T04:14:31.070Z,100878.53
2023-05-10T04:17:00.419Z,100880.25
2023-05-10T04:19:31.250Z,100873.22
2023-05-10T04:21:57.728Z,100876.72
2023-05-10T04:24:24.487Z,100876.72
2023-05-10T04:26:51.586Z,100874.09
2023-05-10T04:29:19.465Z,100889.94
2023-05-10T04:31:46.063Z,100884.66
2023-05-10T04:34:14.937Z,100888.16
2023-05-10T04:36:41.476Z,100893.41
2023-05-10T04:39:07.997Z,100890.78
2023-05-10T04:41:34.446Z,100882.00
2023-05-10T04:44:00.870Z,100890.78
2023-05-10T04:46:27.530Z,100885.47
2023-05-10T04:49:01.141Z,100882.81
2023-05-10T04:51:27.624Z,100895.16
2023-05-10T04:54:05.322Z,100906.59
2023-05-10T04:56:32.774Z,100886.31
2023-05-10T04:58:59.217Z,100891.59
2023-05-10T05:01:25.693Z,100903.06
2023-05-10T05:03:53.861Z,100894.28
2023-05-10T05:06:21.876Z,100895.13
2023-05-10T05:08:50.239Z,100906.56
2023-05-10T05:11:16.993Z,100903.09
2023-05-10T05:13:43.680Z,100912.78
2023-05-10T05:16:10.098Z,100911.00
2023-05-10T05:18:36.529Z,100918.06
2023-05-10T05:21:03.171Z,100920.72
2023-05-10T05:23:29.692Z,100925.16
2023-05-10T05:25:56.229Z,100931.31
2023-05-10T05:28:22.798Z,100926.06
2023-05-10T05:30:49.267Z,100929.56
2023-05-10T05:33:16.512Z,100938.34
2023-05-10T05:35:45.652Z,100942.78
2023-05-10T05:38:12.319Z,100939.22
2023-05-10T05:40:38.768Z,100948.03
2023-05-10T05:43:05.213Z,100950.69
2023-05-10T05:45:31.821Z,100944.50
2023-05-10T05:47:58.384Z,100953.28
2023-05-10T05:50:24.955Z,100953.28
2023-05-10T05:52:52.045Z,100948.00
2023-05-10T05:55:20.968Z,100960.34
2023-05-10T05:57:47.399Z,100963.88
2023-05-10T06:00:14.337Z,100948.91
2023-05-10T06:02:40.862Z,100964.78
2023-05-10T06:05:07.856Z,100962.13
2023-05-10T06:07:34.365Z,100969.16
2023-05-10T06:10:04.171Z,100963.03
2023-05-10T06:12:30.640Z,100964.75
2023-05-10T06:14:57.082Z,100968.28
2023-05-10T06:17:23.536Z,100971.81
2023-05-10T06:19:50.103Z,100973.56
2023-05-10T06:22:16.671Z,100978.84
2023-05-10T06:24:43.184Z,100977.06
2023-05-10T06:27:09.732Z,100983.22
2023-05-10T06:29:36.139Z,100984.09
2023-05-10T06:32:02.557Z,100970.91
2023-05-10T06:34:28.954Z,100982.34
2023-05-10T06:36:55.347Z,100975.28
2023-05-10T06:39:22.012Z,100985.88
2023-05-10T06:41:48.413Z,100984.97
2023-05-10T06:44:14.973Z,100979.69
2023-05-10T06:46:42.569Z,100979.66
2023-05-10T06:49:09.453Z,100984.94
2023-05-10T06:51:35.895Z,100986.69
2023-05-10T06:54:02.876Z,100978.75
2023-05-10T06:56:29.331Z,100988.44
2023-05-10T06:58:55.773Z,100987.53
2023-05-10T07:01:22.211Z,100992.81
2023-05-10T07:03:48.786Z,100988.38
2023-05-10T07:06:29.305Z,100995.44
2023-05-10T07:08:59.788Z,100994.53
2023-05-10T07:11:26.258Z,100995.44
2023-05-10T07:13:52.720Z,101000.69
2023-05-10T07:16:20.803Z,100998.94
2023-05-10T07:18:51.375Z,101000.72
2023-05-10T07:21:17.991Z,101007.72
2023-05-10T07:23:45.242Z,101007.72
2023-05-10T07:26:12.528Z,101001.59
2023-05-10T07:28:39.143Z,101015.66
2023-05-10T07:31:05.767Z,101014.78
2023-05-10T07:33:32.232Z,101020.94
2023-05-10T07:35:58.672Z,101015.66
2023-05-10T07:38:25.344Z,101020.94
2023-05-10T07:40:51.865Z,101025.31
2023-05-10T07:43:18.296Z,101027.09
2023-05-10T07:45:45.961Z,101033.28
2023-05-10T07:48:12.481Z,101029.78
2023-05-10T07:50:38.972Z,101035.03
2023-05-10T07:53:05.389Z,101038.56
2023-05-10T07:55:31.806Z,101034.19
2023-05-10T07:57:58.226Z,101041.19
2023-05-10T08:00:24.607Z,101045.63
2023-05-10T08:02:51.315Z,101038.53
2023-05-10T08:05:18.122Z,101042.94
2023-05-10T08:07:44.708Z,101040.25
2023-05-10T08:10:12.328Z,101042.00
2023-05-10T08:12:39.385Z,101050.78
2023-05-10T08:15:06.621Z,101055.16
2023-05-10T08:17:33.530Z,101057.75
2023-05-10T08:20:00.148Z,101062.16
2023-05-10T08:22:27.064Z,101055.97
2023-05-10T08:24:53.657Z,101052.41
2023-05-10T08:27:20.127Z,101070.00
2023-05-10T08:29:50.521Z,101062.91
2023-05-10T08:32:17.612Z,101067.25
2023-05-10T08:34:44.139Z,101061.94
2023-05-10T08:37:13.980Z,101069.81
2023-05-10T08:39:40.827Z,101065.34
2023-05-10T08:42:08.061Z,101069.69
2023-05-10T08:44:36.653Z,101074.09
2023-05-10T08:47:08.014Z,101076.75
2023-05-10T08:49:34.706Z,101082.06
2023-05-10T08:52:05.025Z,101085.56
2023-05-10T08:54:34.147Z,101084.63
2023-05-10T08:57:01.362Z,101086.38
2023-05-10T08:59:28.719Z,101091.56
2023-05-10T09:01:58.582Z,101079.19
2023-05-10T09:04:25.318Z,101088.81
2023-05-10T09:06:51.923Z,101093.19
2023-05-10T09:09:19.181Z,101091.47
2023-05-10T09:11:46.047Z,101090.59
2023-05-10T09:14:13.543Z,101083.56
2023-05-10T09:16:42.428Z,101097.69
2023-05-10T09:19:09.666Z,101100.38
2023-05-10T09:21:42.210Z,101095.09
2023-05-10T09:24:12.962Z,101107.47
2023-05-10T09:26:49.668Z,101102.13
2023-05-10T09:29:19.292Z,101103.03
2023-05-10T09:31:48.587Z,101106.53
2023-05-10T09:34:29.593Z,101108.25
2023-05-10T09:37:05.266Z,101109.94
2023-05-10T09:39:36.552Z,101115.97
2023-05-10T09:42:09.544Z,101112.22
2023-05-10T09:44:36.762Z,101115.50
2023-05-10T09:47:03.642Z,101113.50
2023-05-10T09:49:30.836Z,101118.63
2023-05-10T09:52:02.300Z,101105.41
2023-05-10T09:54:29.051Z,101114.19
2023-05-10T09:56:55.541Z,101123.94
2023-05-10T09:59:22.107Z,101128.38
2023-05-10T10:01:52.522Z,101126.56
2023-05-10T10:04:20.810Z,101118.63
2023-05-10T10:06:47.283Z,101118.63
2023-05-10T10:09:15.016Z,101126.56
2023-05-10T10:11:42.394Z,101127.41
2023-05-10T10:14:08.985Z,101125.56
2023-05-10T10:16:35.984Z,101133.44
2023-05-10T10:19:02.809Z,101133.44
2023-05-10T10:21:29.506Z,101135.25
2023-05-10T10:23:58.692Z,101134.34
2023-05-10T10:26:26.031Z,101137.78
2023-05-10T10:28:58.281Z,101139.56
2023-05-10T10:32:20.605Z,101139.56
2023-05-10T10:34:47.987Z,101139.56
2023-05-10T10:37:17.318Z,101135.97
2023-05-10T10:39:43.718Z,101135.94
2023-05-10T10:42:10.327Z,101137.72
2023-05-10T10:44:39.022Z,101134.97
2023-05-10T10:47:19.637Z,101137.63
2023-05-10T10:50:03.442Z,101140.16
2023-05-10T10:52:41.196Z,101148.03
2023-05-10T10:55:19.402Z,101142.63
2023-05-10T10:57:52.522Z,101140.72
2023-05-10T11:00:23.022Z,101136.22
2023-05-10T11:02:51.117Z,101139.72
2023-05-10T11:05:50.506Z,101146.66
2023-05-10T11:08:28.238Z,101141.22
2023-05-10T11:11:09.960Z,101145.59
2023-05-10T11:13:41.018Z,101149.19
2023-05-10T11:16:28.020Z,101147.59
2023-05-10T11:18:58.511Z,101144.19
2023-05-10T11:21:25.039Z,101152.31
2023-05-10T11:23:58.689Z,101162.13
2023-05-10T11:26:33.623Z,101163.97
2023-05-10T11:29:01.724Z,101167.53
2023-05-10T11:31:29.574Z,101171.97
2023-05-10T11:33:58.035Z,101172.06
2023-05-10T11:36:30.489Z,101164.97
2023-05-10T11:38:57.990Z,101167.59
2023-05-10T11:41:25.814Z,101152.66
2023-05-10T11:43:54.283Z,101164.06
2023-05-10T11:46:23.056Z,101172.94
2023-05-10T11:48:55.026Z,101176.41
2023-05-10T11:51:22.991Z,101170.97
2023-05-10T11:53:53.817Z,101164.69
2023-05-10T11:56:21.662Z,101153.19
2023-05-10T11:58:56.427Z,101175.91
2023-05-10T12:01:24.853Z,101169.66
2023-05-10T12:03:52.531Z,101176.81
2023-05-10T12:06:22.367Z,101172.41
2023-05-10T12:08:53.432Z,101172.38
2023-05-10T12:11:22.586Z,101181.13
2023-05-10T12:13:49.668Z,101181.06
2023-05-10T12:16:27.071Z,101178.41
2023-05-10T12:18:57.958Z,101174.72
2023-05-10T12:21:25.377Z,101171.06
2023-05-10T12:23:54.358Z,101178.94
2023-05-10T12:26:25.782Z,101177.16
2023-05-10T12:28:52.214Z,101177.06
2023-05-10T12:31:22.176Z,101179.59
2023-05-10T12:33:50.227Z,101183.91
2023-05-10T12:36:17.816Z,101173.94
2023-05-10T12:38:50.874Z,101175.69
2023-05-10T12:41:18.882Z,101182.81
2023-05-10T12:43:49.203Z,101182.00
2023-05-10T12:46:17.456Z,101186.44
2023-05-10T12:48:45.427Z,101191.84
2023-05-10T12:51:14.059Z,101184.91
2023-05-10T12:53:43.676Z,101192.97
2023-05-10T12:56:11.744Z,101189.50
2023-05-10T12:58:39.308Z,101191.28
2023-05-10T13:01:06.289Z,101200.19
2023-05-10T13:03:33.243Z,101202.03
2023-05-10T13:05:59.618Z,101197.81
2023-05-10T13:08:26.217Z,101206.78
2023-05-10T13:10:53.090Z,101209.53
2023-05-10T13:13:19.512Z,101216.75
2023-05-10T13:15:46.036Z,101204.56
2023-05-10T13:18:12.545Z,101217.94
2023-05-10T13:20:39.181Z,101215.41
2023-05-10T13:23:05.667Z,101218.22
2023-05-10T13:25:35.944Z,101221.00
2023-05-10T13:28:02.976Z,101218.44
2023-05-10T13:30:30.225Z,101221.13
2023-05-10T13:32:56.727Z,101221.94
2023-05-10T13:35:23.275Z,101226.34
2023-05-10T13:37:50.256Z,101229.03
2023-05-10T13:40:17.731Z,101222.88
2023-05-10T13:42:44.351Z,101229.97
2023-05-10T13:45:13.257Z,101229.13
2023-05-10T13:47:39.797Z,101230.00
2023-05-10T13:50:07.106Z,101230.00
2023-05-10T13:52:33.599Z,101223.81
2023-05-10T13:55:00.087Z,101233.47
2023-05-10T13:57:26.633Z,101228.22
2023-05-10T13:59:53.829Z,101227.22
2023-05-10T14:02:21.140Z,101228.91
2023-05-10T14:04:47.800Z,101234.03
2023-05-10T14:07:14.220Z,101224.22
2023-05-10T14:09:40.761Z,101217.06
2023-05-10T14:12:07.140Z,101224.00
2023-05-10T14:14:33.636Z,101226.56
2023-05-10T14:17:00.472Z,101222.00
2023-05-10T14:19:28.023Z,101225.44
2023-05-10T14:21:54.490Z,101220.91
2023-05-10T14:24:21.149Z,101223.47
2023-05-10T14:26:47.488Z,101222.59
2023-05-10T14:29:15.544Z,101224.47
2023-05-10T14:31:42.062Z,101224.50
2023-05-10T14:34:08.580Z,101225.44
2023-05-10T14:36:35.006Z,101223.72
2023-05-10T14:39:01.419Z,101229.00
2023-05-10T14:41:27.889Z,101234.31
2023-05-10T14:43:54.256Z,101233.44
2023-05-10T14:46:20.850Z,101231.59
2023-05-10T14:48:47.346Z,101227.09
2023-05-10T14:51:13.871Z,101230.50
2023-05-10T14:53:40.480Z,101234.03
2023-05-10T14:56:07.328Z,101229.63
2023-05-10T14:58:34.393Z,101235.88
2023-05-10T15:01:02.514Z,101235.88
2023-05-10T15:03:29.889Z,101236.88
2023-05-10T15:05:58.525Z,101238.66
2023-05-10T15:08:25.637Z,101235.25
2023-05-10T15:10:52.791Z,101238.81
2023-05-10T15:13:19.207Z,101232.59
2023-05-10T15:15:45.703Z,101239.63
2023-05-10T15:18:12.581Z,101244.94
2023-05-10T15:20:39.179Z,101241.41
2023-05-10T15:23:05.688Z,101239.63
2023-05-10T15:25:35.169Z,101243.97
2023-05-10T15:28:03.395Z,101238.59
2023-05-10T15:30:30.040Z,101241.06
2023-05-10T15:32:56.797Z,101250.63
2023-05-10T15:35:23.308Z,101245.19
2023-05-10T15:37:50.284Z,101245.94
2023-05-10T15:40:16.923Z,101246.81
2023-05-10T15:42:43.362Z,101246.69
2023-05-10T15:45:15.453Z,101247.53
2023-05-10T15:47:42.215Z,101250.97
2023-05-10T15:50:09.655Z,101251.00
2023-05-10T15:52:36.168Z,101252.78
2023-05-10T15:55:04.117Z,101260.66
2023-05-10T15:57:30.634Z,101257.94
2023-05-10T15:59:57.049Z,101263.25
2023-05-10T16:02:23.783Z,101259.66
2023-05-10T16:04:50.301Z,101262.31
2023-05-10T16:07:16.853Z,101248.28
2023-05-10T16:09:43.324Z,101257.03
2023-05-10T16:12:10.975Z,101258.84
2023-05-10T16:14:44.619Z,101253.63
2023-05-10T16:17:11.564Z,101257.19
2023-05-10T16:19:38.124Z,101262.50
2023-05-10T16:22:05.062Z,101260.72
2023-05-10T16:24:31.502Z,101260.72
2023-05-10T16:26:57.896Z,101264.25
2023-05-10T16:29:24.292Z,101274.88
2023-05-10T16:31:50.719Z,101278.41
2023-05-10T16:34:17.305Z,101266.88
2023-05-10T16:36:45.868Z,101277.53
2023-05-10T16:39:12.421Z,101271.41
2023-05-10T16:41:38.797Z,101275.84
2023-05-10T16:44:05.401Z,101275.91
2023-05-10T16:46:31.949Z,101277.72
2023-05-10T16:48:59.814Z,101279.56
2023-05-10T16:51:26.979Z,101278.69
2023-05-10T16:53:53.661Z,101290.31
2023-05-10T16:56:21.753Z,101286.78
2023-05-10T16:58:49.936Z,101293.09
2023-05-10T17:01:17.206Z,101290.47
2023-05-10T17:03:43.877Z,101288.75
2023-05-10T17:06:14.547Z,101287.97
2023-05-10T17:08:40.997Z,101285.44
2023-05-10T17:11:07.733Z,101292.59
2023-05-10T17:13:34.233Z,101289.97
2023-05-10T17:16:04.108Z,101288.25
2023-05-10T17:18:33.149Z,101290.00
2023-05-10T17:20:59.608Z,101293.53
2023-05-10T17:23:28.485Z,101287.41
2023-05-10T17:25:55.108Z,101298.97
2023-05-10T17:28:21.737Z,101296.31
2023-05-10T17:30:55.694Z,101299.84
2023-05-10T17:33:22.106Z,101299.84
2023-05-10T17:35:48.990Z,101310.53
2023-05-10T17:38:15.989Z,101311.44
2023-05-10T17:40:42.861Z,101311.50
2023-05-10T17:43:10.907Z,101315.06
2023-05-10T17:45:37.553Z,101313.41
2023-05-10T17:48:04.385Z,101324.06
2023-05-10T17:50:32.753Z,101316.16
2023-05-10T17:52:59.354Z,101317.09
2023-05-10T17:55:30.088Z,101326.00
2023-05-10T17:57:59.448Z,101326.03
2023-05-10T18:00:26.099Z,101335.81
2023-05-10T18:02:52.703Z,101331.41
2023-05-10T18:05:19.490Z,101327.97
2023-05-10T18:07:46.466Z,101332.41
2023-05-10T18:10:12.869Z,101337.72
2023-05-10T18:12:39.537Z,101335.97
2023-05-10T18:15:06.595Z,101340.41
2023-05-10T18:17:34.977Z,101334.16
2023-05-10T18:20:02.144Z,101336.81
2023-05-10T18:22:28.648Z,101334.97
2023-05-10T18:24:55.237Z,101346.47
2023-05-10T18:27:25.021Z,101339.41
2023-05-10T18:29:52.280Z,101340.28
2023-05-10T18:32:20.932Z,101335.03
2023-05-10T18:34:47.341Z,101340.38
2023-05-10T18:37:14.132Z,101340.41
2023-05-10T18:39:40.862Z,101336.91
2023-05-10T18:42:08.461Z,101344.88
2023-05-10T18:44:34.941Z,101342.22
2023-05-10T18:47:01.498Z,101346.69
2023-05-10T18:49:29.201Z,101348.53
2023-05-10T18:51:55.655Z,101342.38
2023-05-10T18:54:22.631Z,101353.03
2023-05-10T18:56:49.810Z,101352.19
2023-05-10T18:59:16.608Z,101355.72
2023-05-10T19:01:43.260Z,101349.53
2023-05-10T19:04:09.828Z,101366.34
2023-05-10T19:06:36.356Z,101358.41
2023-05-10T19:09:03.280Z,101368.16
2023-05-10T19:11:32.290Z,101368.16
2023-05-10T19:13:58.826Z,101365.50
2023-05-10T19:16:27.391Z,101368.16
2023-05-10T19:18:56.401Z,101370.81
2023-05-10T19:21:23.504Z,101374.38
2023-05-10T19:23:50.056Z,101379.69
2023-05-10T19:26:16.591Z,101378.81
2023-05-10T19:28:43.032Z,101379.72
2023-05-10T19:31:09.625Z,101384.16
2023-05-10T19:33:38.343Z,101385.94
2023-05-10T19:36:05.529Z,101392.09
2023-05-10T19:38:31.920Z,101393.00
2023-05-10T19:41:01.293Z,101400.09
2023-05-10T19:43:30.657Z,101396.56
2023-05-10T19:45:59.194Z,101397.44
2023-05-10T19:48:25.978Z,101401.88
2023-05-10T19:50:53.665Z,101400.13
2023-05-10T19:53:27.309Z,101403.69
2023-05-10T19:55:54.920Z,101407.19
2023-05-10T19:58:21.473Z,101411.63
2023-05-10T20:00:47.943Z,101412.53
2023-05-10T20:03:14.446Z,101413.44
2023-05-10T20:05:40.871Z,101409.91
2023-05-10T20:08:07.903Z,101408.13
2023-05-10T20:10:34.286Z,101411.66
2023-05-10T20:13:01.044Z,101406.34
2023-05-10T20:15:29.451Z,101409.91
2023-05-10T20:17:56.204Z,101410.81
2023-05-10T20:20:22.751Z,101400.22
2023-05-10T20:22:49.693Z,101402.88
2023-05-10T20:25:17.621Z,101406.41
2023-05-10T20:27:44.724Z,101400.25
2023-05-10T20:30:11.847Z,101404.72
2023-05-10T20:32:38.893Z,101405.59
2023-05-10T20:35:06.169Z,101412.69
2023-05-10T20:37:33.071Z,101410.09
2023-05-10T20:39:59.951Z,101410.97
2023-05-10T20:42:26.429Z,101408.34
2023-05-10T20:44:52.867Z,101411.00
2023-05-10T20:47:19.416Z,101414.56
2023-05-10T20:49:46.050Z,101416.31
2023-05-10T20:52:12.686Z,101417.19
2023-05-10T20:54:42.130Z,101420.72
2023-05-10T20:57:14.143Z,101420.75
2023-05-10T20:59:40.637Z,101420.75
2023-05-10T21:02:07.057Z,101425.16
2023-05-10T21:04:33.770Z,101416.34
2023-05-10T21:07:00.275Z,101422.50
2023-05-10T21:09:26.749Z,101419.88
2023-05-10T21:11:55.898Z,101416.34
2023-05-10T21:14:22.345Z,101419.84
2023-05-10T21:16:51.072Z,101415.44
2023-05-10T21:19:17.517Z,101411.91
2023-05-10T21:21:43.905Z,101413.66
2023-05-10T21:24:10.473Z,101413.69
2023-05-10T21:26:37.271Z,101421.63
2023-05-10T21:29:04.752Z,101418.09
2023-05-10T21:31:31.761Z,101418.09
2023-05-10T21:33:58.319Z,101411.94
2023-05-10T21:36:25.638Z,101415.44
2023-05-10T21:38:52.337Z,101411.06
2023-05-10T21:41:18.825Z,101409.31
2023-05-10T21:43:45.327Z,101411.06
2023-05-10T21:46:13.381Z,101405.78
2023-05-10T21:48:39.892Z,101409.28
2023-05-10T21:51:06.410Z,101411.06
2023-05-10T21:53:33.515Z,101413.69
2023-05-10T21:55:59.958Z,101412.81
2023-05-10T21:58:26.473Z,101415.47
2023-05-10T22:00:52.988Z,101419.00
2023-05-10T22:03:21.505Z,101413.72
2023-05-10T22:05:48.170Z,101410.22
2023-05-10T22:08:14.868Z,101418.13
2023-05-10T22:10:42.722Z,101418.13
2023-05-10T22:13:09.254Z,101416.34
2023-05-10T22:15:36.618Z,101411.06
2023-05-10T22:18:03.398Z,101410.19
2023-05-10T22:20:29.910Z,101411.09
2023-05-10T22:22:56.413Z,101420.78
2023-05-10T22:25:22.992Z,101427.88
2023-05-10T22:27:49.581Z,101419.91
2023-05-10T22:30:19.859Z,101420.81
2023-05-10T22:32:49.148Z,101423.47
2023-05-10T22:35:15.631Z,101413.78
2023-05-10T22:37:42.213Z,101414.66
2023-05-10T22:40:09.256Z,101422.59
2023-05-10T22:42:35.710Z,101421.72
2023-05-10T22:45:02.163Z,101423.47
2023-05-10T22:47:28.607Z,101431.44
2023-05-10T22:49:55.585Z,101424.34
2023-05-10T22:52:22.044Z,101427.00
2023-05-10T22:54:48.495Z,101421.72
2023-05-10T22:57:15.215Z,101424.34
2023-05-10T22:59:42.455Z,101410.25
2023-05-10T23:02:09.572Z,101427.84
2023-05-10T23:04:36.297Z,101432.25
2023-05-10T23:07:02.757Z,101436.66
2023-05-10T23:09:29.139Z,101437.56
2023-05-10T23:11:55.741Z,101434.91
2023-05-10T23:14:22.479Z,101437.53
2023-05-10T23:16:48.920Z,101438.41
2023-05-10T23:19:16.587Z,101429.59
2023-05-10T23:21:43.042Z,101437.53
2023-05-10T23:24:09.569Z,101434.88
2023-05-10T23:26:36.233Z,101442.84
2023-05-10T23:29:02.637Z,101438.44
2023-05-10T23:31:29.245Z,101440.19
2023-05-10T23:33:55.908Z,101441.97
2023-05-10T23:36:22.514Z,101435.78
2023-05-10T23:38:48.957Z,101441.09
2023-05-10T23:41:15.532Z,101444.63
2023-05-10T23:43:42.006Z,101443.75
2023-05-10T23:46:08.563Z,101437.56
2023-05-10T23:48:37.432Z,101441.09
2023-05-10T23:51:04.036Z,101439.34
2023-05-10T23:53:30.564Z,101446.38
2023-05-10T23:55:57.349Z,101436.66
2023-05-10T23:58:23.897Z,101443.72
